Time;durP1;ratioP1;P1;durP2;ratioP2;P2;SDS_P1;SDS_P2;PMS_P1;PMS_P2;Temp;Humidity;BMP_temperature;BMP_pressure;BME280_temperature;BME280_humidity;BME280_pressure;Samples;Min_cycle;Max_cycle;Signal;HPM_P1;HPM_P2
2023/08/20 00:01:36;;;;;;;;;;;;;;;;;;5027194;28;19917;-75
2023/08/20 00:04:22;;;;;;;;;;;;;;;;;;5021382;28;19930;-75
2023/08/20 00:07:09;;;;;;;;;;;;;;;;;;5019142;28;19917;-75
2023/08/20 00:09:55;;;;;;;;;;;;;;;;;;5018338;28;19917;-76
2023/08/20 00:12:42;;;;;;;;;;;;;;;;;;5017790;28;19921;-76
2023/08/20 00:15:28;;;;;;;;;;;;;;;;;;5026867;28;19917;-75
2023/08/20 00:18:15;;;;;;;;;;;;;;;;;;5026798;28;19921;-75
2023/08/20 00:21:01;;;;;;;;;;;;;;;;;;5014412;28;19925;-76
2023/08/20 00:23:48;;;;;;;;;;;;;;;;;;5020755;28;20001;-76
2023/08/20 00:26:34;;;;;;;;;;;;;;;;;;5021022;28;19917;-76
2023/08/20 00:29:21;;;;;;;;;;;;;;;;;;5024075;28;20132;-75
2023/08/20 00:32:07;;;;;;;;;;;;;;;;;;5019176;28;19928;-76
2023/08/20 00:34:54;;;;;;;;;;;;;;;;;;5020648;28;19917;-76
2023/08/20 00:37:40;;;;;;;;;;;;;;;;;;5018720;28;19917;-77
2023/08/20 00:40:27;;;;;;;;;;;;;;;;;;5026476;28;20403;-76
2023/08/20 00:43:13;;;;;;;;;;;;;;;;;;5023126;28;19996;-76
2023/08/20 00:46:00;;;;;;;;;;;;;;;;;;5018733;28;19929;-76
2023/08/20 00:48:46;;;;;;;;;;;;;;;;;;5018973;28;19971;-76
2023/08/20 00:51:33;;;;;;;;;;;;;;;;;;5014958;28;19932;-76
2023/08/20 00:54:19;;;;;;;;;;;;;;;;;;5024137;28;19925;-77
2023/08/20 00:57:06;;;;;;;;;;;;;;;;;;5022453;28;20500;-77
2023/08/20 00:59:52;;;;;;;;;;;;;;;;;;5016245;28;19917;-77
2023/08/20 01:02:39;;;;;;;;;;;;;;;;;;5022165;28;19927;-77
2023/08/20 01:05:25;;;;;;;;;;;;;;;;;;5023071;28;19932;-77
2023/08/20 01:08:12;;;;;;;;;;;;;;;;;;5019533;28;19921;-77
2023/08/20 01:10:58;;;;;;;;;;;;;;;;;;5024664;28;20420;-77
2023/08/20 01:13:45;;;;;;;;;;;;;;;;;;5018795;28;19921;-77
2023/08/20 01:16:32;;;;;;;;;;;;;;;;;;5009889;28;19917;-77
2023/08/20 01:19:18;;;;;;;;;;;;;;;;;;5017281;28;19949;-77
2023/08/20 01:22:06;;;;;;;;;;;;;;;;;;5019178;28;19940;-78
2023/08/20 01:24:53;;;;;;;;;;;;;;;;;;5021562;28;20300;-77
2023/08/20 01:27:41;;;;;;;;;;;;;;;;;;5026018;28;19917;-77
2023/08/20 01:30:28;;;;;;;;;;;;;;;;;;5025297;28;19921;-77
2023/08/20 01:33:14;;;;;;;;;;;;;;;;;;5018583;28;19924;-76
2023/08/20 01:36:01;;;;;;;;;;;;;;;;;;5009808;28;19921;-76
2023/08/20 01:38:48;;;;;;;;;;;;;;;;;;5016973;28;19929;-76
2023/08/20 01:41:34;;;;;;;;;;;;;;;;;;5025558;28;19921;-76
2023/08/20 01:44:21;;;;;;;;;;;;;;;;;;5017869;28;19932;-75
2023/08/20 01:47:07;;;;;;;;;;;;;;;;;;5013776;28;19944;-77
2023/08/20 01:49:54;;;;;;;;;;;;;;;;;;5018987;28;19929;-77
2023/08/20 01:52:40;;;;;;;;;;;;;;;;;;5020395;28;19943;-77
2023/08/20 01:55:27;;;;;;;;;;;;;;;;;;5023987;28;19940;-77
2023/08/20 01:58:13;;;;;;;;;;;;;;;;;;5017151;28;19914;-77
2023/08/20 02:00:59;;;;;;;;;;;;;;;;;;5016166;28;20387;-77
2023/08/20 02:03:46;;;;;;;;;;;;;;;;;;5022578;28;19929;-77
2023/08/20 02:06:32;;;;;;;;;;;;;;;;;;5011576;28;19917;-77
2023/08/20 02:09:20;;;;;;;;;;;;;;;;;;5015826;28;19925;-77
2023/08/20 02:12:06;;;;;;;;;;;;;;;;;;5018042;28;19917;-78
2023/08/20 02:14:53;;;;;;;;;;;;;;;;;;5019824;28;19927;-78
2023/08/20 02:17:39;;;;;;;;;;;;;;;;;;5013526;28;20292;-77
2023/08/20 02:20:26;;;;;;;;;;;;;;;;;;5016440;28;19921;-77
2023/08/20 02:23:12;;;;;;;;;;;;;;;;;;5021505;28;19947;-76
2023/08/20 02:26:00;;;;;;;;;;;;;;;;;;5015532;28;19932;-75
2023/08/20 02:28:46;;;;;;;;;;;;;;;;;;5017946;28;19941;-75
2023/08/20 02:31:33;;;;;;;;;;;;;;;;;;5020514;28;19923;-75
2023/08/20 02:34:19;;;;;;;;;;;;;;;;;;5021783;28;19921;-75
2023/08/20 02:37:06;;;;;;;;;;;;;;;;;;5018021;28;19917;-75
2023/08/20 02:39:53;;;;;;;;;;;;;;;;;;5020555;28;20466;-77
2023/08/20 02:42:39;;;;;;;;;;;;;;;;;;5022875;28;19917;-77
2023/08/20 02:45:26;;;;;;;;;;;;;;;;;;5018608;28;19934;-77
2023/08/20 02:48:12;;;;;;;;;;;;;;;;;;5022105;28;19928;-77
2023/08/20 02:50:59;;;;;;;;;;;;;;;;;;5023530;28;19924;-76
2023/08/20 02:53:45;;;;;;;;;;;;;;;;;;5013125;28;19921;-76
2023/08/20 02:56:32;;;;;;;;;;;;;;;;;;5019298;28;19921;-77
2023/08/20 02:59:18;;;;;;;;;;;;;;;;;;5013711;28;19917;-76
2023/08/20 03:02:04;;;;;;;;;;;;;;;;;;5017143;28;19920;-76
2023/08/20 03:04:51;;;;;;;;;;;;;;;;;;5020197;28;19929;-76
2023/08/20 03:07:37;;;;;;;;;;;;;;;;;;5024222;28;19928;-76
2023/08/20 03:10:24;;;;;;;;;;;;;;;;;;5016589;28;19927;-76
2023/08/20 03:13:11;;;;;;;;;;;;;;;;;;5015730;28;19928;-77
2023/08/20 03:15:57;;;;;;;;;;;;;;;;;;5012566;28;19922;-75
2023/08/20 03:18:44;;;;;;;;;;;;;;;;;;5027363;28;20019;-78
2023/08/20 03:21:30;;;;;;;;;;;;;;;;;;5024576;28;19952;-75
2023/08/20 03:24:17;;;;;;;;;;;;;;;;;;5020208;28;20292;-76
2023/08/20 03:27:03;;;;;;;;;;;;;;;;;;5024653;28;19917;-76
2023/08/20 03:29:50;;;;;;;;;;;;;;;;;;5012441;28;19940;-77
2023/08/20 03:32:36;;;;;;;;;;;;;;;;;;5016064;28;19924;-76
2023/08/20 03:35:22;;;;;;;;;;;;;;;;;;5025811;28;19928;-77
2023/08/20 03:38:09;;;;;;;;;;;;;;;;;;5016779;28;19960;-77
2023/08/20 03:40:56;;;;;;;;;;;;;;;;;;5026940;28;19917;-77
2023/08/20 03:43:42;;;;;;;;;;;;;;;;;;5020200;28;19921;-77
2023/08/20 03:46:28;;;;;;;;;;;;;;;;;;5021434;28;19921;-75
2023/08/20 03:49:15;;;;;;;;;;;;;;;;;;5017102;28;19930;-77
2023/08/20 03:52:02;;;;;;;;;;;;;;;;;;5024303;28;19926;-76
2023/08/20 03:54:50;;;;;;;;;;;;;;;;;;5021293;28;19917;-76
2023/08/20 03:57:36;;;;;;;;;;;;;;;;;;5009124;28;19925;-76
2023/08/20 04:00:23;;;;;;;;;;;;;;;;;;5018897;28;19925;-76
2023/08/20 04:03:09;;;;;;;;;;;;;;;;;;5024924;28;19921;-77
2023/08/20 04:05:55;;;;;;;;;;;;;;;;;;5026129;28;19932;-76
2023/08/20 04:08:42;;;;;;;;;;;;;;;;;;5025958;28;19928;-77
2023/08/20 04:11:29;;;;;;;;;;;;;;;;;;5022109;28;20345;-76
2023/08/20 04:14:15;;;;;;;;;;;;;;;;;;5021907;28;19933;-77
2023/08/20 04:17:02;;;;;;;;;;;;;;;;;;5024542;28;19920;-77
2023/08/20 04:19:48;;;;;;;;;;;;;;;;;;5024241;28;20343;-76
2023/08/20 04:22:35;;;;;;;;;;;;;;;;;;5019591;28;19924;-76
2023/08/20 04:25:21;;;;;;;;;;;;;;;;;;5015884;28;19929;-77
2023/08/20 04:28:08;;;;;;;;;;;;;;;;;;5023428;28;19925;-77
2023/08/20 04:30:54;;;;;;;;;;;;;;;;;;5022980;28;20603;-77
2023/08/20 04:33:40;;;;;;;;;;;;;;;;;;5023987;28;19917;-78
2023/08/20 04:36:27;;;;;;;;;;;;;;;;;;5024356;28;19927;-75
2023/08/20 04:39:13;;;;;;;;;;;;;;;;;;5025955;28;19924;-77
2023/08/20 04:42:00;;;;;;;;;;;;;;;;;;5022988;28;20016;-76
2023/08/20 04:44:46;;;;;;;;;;;;;;;;;;5022594;28;20320;-78
2023/08/20 04:47:33;;;;;;;;;;;;;;;;;;5019740;28;19936;-77
2023/08/20 04:50:19;;;;;;;;;;;;;;;;;;5006762;28;20301;-76
2023/08/20 04:53:06;;;;;;;;;;;;;;;;;;5016577;28;19917;-79
2023/08/20 04:55:52;;;;;;;;;;;;;;;;;;5020075;28;19937;-77
2023/08/20 04:58:39;;;;;;;;;;;;;;;;;;5025195;28;19928;-76
2023/08/20 05:01:25;;;;;;;;;;;;;;;;;;5017289;28;19920;-75
2023/08/20 05:04:12;;;;;;;;;;;;;;;;;;5018152;28;20375;-75
2023/08/20 05:06:58;;;;;;;;;;;;;;;;;;5019352;28;19928;-77
2023/08/20 05:09:44;;;;;;;;;;;;;;;;;;5017623;28;19921;-77
2023/08/20 05:12:31;;;;;;;;;;;;;;;;;;5022595;28;19921;-77
2023/08/20 05:15:17;;;;;;;;;;;;;;;;;;5015887;28;19925;-76
2023/08/20 05:18:04;;;;;;;;;;;;;;;;;;5010249;28;19940;-77
2023/08/20 05:20:50;;;;;;;;;;;;;;;;;;5020662;28;20288;-76
2023/08/20 05:23:37;;;;;;;;;;;;;;;;;;5012122;28;19932;-76
2023/08/20 05:26:23;;;;;;;;;;;;;;;;;;5025627;28;20295;-77
2023/08/20 05:29:10;;;;;;;;;;;;;;;;;;5019477;28;19918;-77
2023/08/20 05:31:56;;;;;;;;;;;;;;;;;;5023079;28;19921;-77
2023/08/20 05:34:43;;;;;;;;;;;;;;;;;;5018256;28;19928;-76
2023/08/20 05:37:29;;;;;;;;;;;;;;;;;;5026109;28;20426;-76
2023/08/20 05:40:16;;;;;;;;;;;;;;;;;;5006689;28;20694;-76
2023/08/20 05:43:02;;;;;;;;;;;;;;;;;;5021154;28;20141;-76
2023/08/20 05:45:49;;;;;;;;;;;;;;;;;;5024763;28;19932;-76
2023/08/20 05:48:35;;;;;;;;;;;;;;;;;;5018131;28;19932;-76
2023/08/20 05:51:22;;;;;;;;;;;;;;;;;;5006745;28;19955;-77
2023/08/20 05:54:08;;;;;;;;;;;;;;;;;;5015023;28;19921;-77
2023/08/20 05:56:55;;;;;;;;;;;;;;;;;;5021000;28;19925;-77
2023/08/20 05:59:41;;;;;;;;;;;;;;;;;;5013319;28;20392;-77
2023/08/20 06:02:28;;;;;;;;;;;;;;;;;;5021868;28;19921;-76
2023/08/20 06:05:14;;;;;;;;;;;;;;;;;;5020471;28;19929;-76
2023/08/20 06:08:01;;;;;;;;;;;;;;;;;;5021475;28;20030;-76
2023/08/20 06:10:47;;;;;;;;;;;;;;;;;;5018651;28;19917;-77
2023/08/20 06:13:33;;;;;;;;;;;;;;;;;;5022956;28;20575;-77
2023/08/20 06:16:20;;;;;;;;;;;;;;;;;;5014856;28;19922;-78
2023/08/20 06:19:06;;;;;;;;;;;;;;;;;;5004087;28;19921;-77
2023/08/20 06:21:53;;;;;;;;;;;;;;;;;;5023403;28;19943;-77
2023/08/20 06:24:39;;;;;;;;;;;;;;;;;;5022197;28;19936;-77
2023/08/20 06:27:26;;;;;;;;;;;;;;;;;;5012587;28;19929;-77
2023/08/20 06:30:12;;;;;;;;;;;;;;;;;;5022216;28;19996;-78
2023/08/20 06:32:59;;;;;;;;;;;;;;;;;;5012903;28;19924;-77
2023/08/20 06:35:45;;;;;;;;;;;;;;;;;;5017667;28;19959;-77
2023/08/20 06:38:32;;;;;;;;;;;;;;;;;;5018340;28;19922;-77
2023/08/20 06:41:18;;;;;;;;;;;;;;;;;;5017092;28;19936;-77
2023/08/20 06:44:05;;;;;;;;;;;;;;;;;;5019597;28;19935;-77
2023/08/20 06:46:51;;;;;;;;;;;;;;;;;;5019915;28;19925;-77
2023/08/20 06:49:38;;;;;;;;;;;;;;;;;;5019498;28;20309;-76
2023/08/20 06:52:24;;;;;;;;;;;;;;;;;;5021946;28;20237;-76
2023/08/20 06:55:11;;;;;;;;;;;;;;;;;;5018625;28;19925;-77
2023/08/20 06:57:57;;;;;;;;;;;;;;;;;;5014278;28;19921;-78
2023/08/20 07:00:43;;;;;;;;;;;;;;;;;;5023231;28;19928;-78
2023/08/20 07:03:30;;;;;;;;;;;;;;;;;;5020127;28;19921;-77
2023/08/20 07:06:18;;;;;;;;;;;;;;;;;;5017204;28;19936;-78
2023/08/20 07:09:04;;;;;;;;;;;;;;;;;;5016769;28;19948;-76
2023/08/20 07:11:51;;;;;;;;;;;;;;;;;;5021418;28;19917;-77
2023/08/20 07:14:38;;;;;;;;;;;;;;;;;;5002102;28;19928;-76
2023/08/20 07:17:24;;;;;;;;;;;;;;;;;;5007134;28;19932;-75
2023/08/20 07:20:10;;;;;;;;;;;;;;;;;;5019021;28;19921;-77
2023/08/20 07:22:57;;;;;;;;;;;;;;;;;;5014198;28;19933;-77
2023/08/20 07:25:44;;;;;;;;;;;;;;;;;;5019368;28;19933;-77
2023/08/20 07:31:36;;;;;;;;;;;;;;;;;;5020695;28;19921;-75
2023/08/20 07:34:22;;;;;;;;;;;;;;;;;;5022474;28;19925;-75
2023/08/20 07:37:09;;;;;;;;;;;;;;;;;;5018680;28;19924;-76
2023/08/20 07:39:55;;;;;;;;;;;;;;;;;;5004332;28;19918;-76
2023/08/20 07:42:42;;;;;;;;;;;;;;;;;;5021228;28;19921;-77
2023/08/20 07:45:28;;;;;;;;;;;;;;;;;;5016153;28;19934;-76
2023/08/20 07:48:15;;;;;;;;;;;;;;;;;;5015030;28;21480;-76
2023/08/20 07:51:01;;;;;;;;;;;;;;;;;;5023061;28;19925;-76
2023/08/20 07:53:48;;;;;;;;;;;;;;;;;;5013831;28;19920;-76
2023/08/20 07:56:34;;;;;;;;;;;;;;;;;;5018823;28;20381;-76
2023/08/20 07:59:21;;;;;;;;;;;;;;;;;;5026236;28;19962;-75
2023/08/20 08:02:07;;;;;;;;;;;;;;;;;;5020863;28;19928;-75
2023/08/20 08:04:54;;;;;;;;;;;;;;;;;;5017383;28;19925;-77
2023/08/20 08:07:40;;;;;;;;;;;;;;;;;;5020802;28;19928;-79
2023/08/20 08:10:27;;;;;;;;;;;;;;;;;;5023288;28;19921;-79
2023/08/20 08:13:13;;;;;;;;;;;;;;;;;;5022656;28;19928;-80
2023/08/20 08:16:00;;;;;;;;;;;;;;;;;;5025310;28;19940;-80
2023/08/20 08:18:46;;;;;;;;;;;;;;;;;;5020138;28;20270;-80
2023/08/20 08:21:33;;;;;;;;;;;;;;;;;;5022914;28;19925;-79
2023/08/20 08:24:19;;;;;;;;;;;;;;;;;;5023667;28;19921;-81
2023/08/20 08:27:06;;;;;;;;;;;;;;;;;;5017071;28;19925;-79
2023/08/20 08:29:52;;;;;;;;;;;;;;;;;;5011491;28;20715;-81
2023/08/20 08:32:39;;;;;;;;;;;;;;;;;;5024818;28;19935;-83
2023/08/20 08:35:25;;;;;;;;;;;;;;;;;;5027854;28;19928;-82
2023/08/20 08:38:11;;;;;;;;;;;;;;;;;;5020826;28;19928;-81
2023/08/20 08:40:58;;;;;;;;;;;;;;;;;;5024875;28;19932;-82
2023/08/20 08:43:46;;;;;;;;;;;;;;;;;;5025081;28;19928;-81
2023/08/20 08:46:32;;;;;;;;;;;;;;;;;;5024426;28;19929;-80
2023/08/20 08:49:19;;;;;;;;;;;;;;;;;;5026334;28;19932;-81
2023/08/20 08:52:06;;;;;;;;;;;;;;;;;;5012367;28;19913;-81
2023/08/20 08:54:52;;;;;;;;;;;;;;;;;;5020131;28;19921;-81
2023/08/20 08:57:39;;;;;;;;;;;;;;;;;;5020582;28;20397;-77
2023/08/20 09:00:25;;;;;;;;;;;;;;;;;;5025177;28;19921;-77
2023/08/20 09:03:12;;;;;;;;;;;;;;;;;;5022318;28;19921;-76
2023/08/20 09:06:00;;;;;;;;;;;;;;;;;;5014782;28;19929;-77
2023/08/20 09:08:46;;;;;;;;;;;;;;;;;;5002606;28;19921;-77
2023/08/20 09:11:33;;;;;;;;;;;;;;;;;;5014939;28;19931;-78
2023/08/20 09:14:19;;;;;;;;;;;;;;;;;;5018496;28;19956;-77
2023/08/20 09:17:06;;;;;;;;;;;;;;;;;;5014381;28;20003;-77
2023/08/20 09:19:52;;;;;;;;;;;;;;;;;;5025451;28;19928;-77
2023/08/20 09:22:39;;;;;;;;;;;;;;;;;;5006417;28;19914;-78
2023/08/20 09:25:25;;;;;;;;;;;;;;;;;;5026485;28;19925;-77
2023/08/20 09:28:12;;;;;;;;;;;;;;;;;;5027525;28;19943;-78
2023/08/20 09:30:58;;;;;;;;;;;;;;;;;;5031242;28;19905;-78
2023/08/20 09:33:44;;;;;;;;;;;;;;;;;;5040408;28;19921;-76
2023/08/20 09:36:31;;;;;;;;;;;;;;;;;;5026596;28;20644;-75
2023/08/20 09:39:17;;;;;;;;;;;;;;;;;;5021685;28;19921;-75
2023/08/20 09:42:04;;;;;;;;;;;;;;;;;;5021767;28;19921;-75
2023/08/20 09:44:50;;;;;;;;;;;;;;;;;;5019031;28;19925;-77
2023/08/20 09:47:37;;;;;;;;;;;;;;;;;;5022806;28;19936;-77
2023/08/20 09:50:23;;;;;;;;;;;;;;;;;;5021458;28;19921;-76
2023/08/20 09:53:10;;;;;;;;;;;;;;;;;;5022623;28;19920;-75
2023/08/20 09:55:56;;;;;;;;;;;;;;;;;;5021953;28;19921;-77
2023/08/20 09:58:43;;;;;;;;;;;;;;;;;;5026811;28;19936;-76
2023/08/20 10:01:30;;;;;;;;;;;;;;;;;;5022486;28;19917;-75
2023/08/20 10:04:16;;;;;;;;;;;;;;;;;;5024825;28;19921;-75
2023/08/20 10:07:03;;;;;;;;;;;;;;;;;;5023823;28;19936;-75
2023/08/20 10:09:51;;;;;;;;;;;;;;;;;;5020982;28;19929;-76
2023/08/20 10:12:41;;;;;;;;;;;;;;;;;;5017493;28;19924;-75
2023/08/20 10:15:28;;;;;;;;;;;;;;;;;;5019956;28;19925;-77
2023/08/20 10:18:14;;;;;;;;;;;;;;;;;;5022592;28;19917;-76
2023/08/20 10:21:01;;;;;;;;;;;;;;;;;;5021079;28;19921;-76
2023/08/20 10:23:47;;;;;;;;;;;;;;;;;;5023656;28;19932;-76
2023/08/20 10:26:34;;;;;;;;;;;;;;;;;;5001429;28;20278;-75
2023/08/20 10:29:21;;;;;;;;;;;;;;;;;;5019297;28;20750;-75
2023/08/20 10:32:07;;;;;;;;;;;;;;;;;;5017336;28;19928;-76
2023/08/20 10:34:54;;;;;;;;;;;;;;;;;;5023347;28;19925;-75
2023/08/20 10:37:40;;;;;;;;;;;;;;;;;;5023421;28;19928;-76
2023/08/20 10:40:27;;;;;;;;;;;;;;;;;;5023598;28;19925;-76
2023/08/20 10:43:13;;;;;;;;;;;;;;;;;;5020089;28;19928;-76
2023/08/20 10:46:00;;;;;;;;;;;;;;;;;;5021467;28;20278;-76
2023/08/20 10:48:47;;;;;;;;;;;;;;;;;;5020072;28;19929;-76
2023/08/20 10:51:33;;;;;;;;;;;;;;;;;;5016097;28;20344;-76
2023/08/20 10:54:20;;;;;;;;;;;;;;;;;;5022094;28;19917;-75
2023/08/20 10:57:06;;;;;;;;;;;;;;;;;;5017512;28;19932;-76
2023/08/20 10:59:53;;;;;;;;;;;;;;;;;;5019116;28;19928;-76
2023/08/20 11:02:39;;;;;;;;;;;;;;;;;;5018839;28;19944;-76
2023/08/20 11:05:26;;;;;;;;;;;;;;;;;;5022151;28;20373;-76
2023/08/20 11:08:12;;;;;;;;;;;;;;;;;;5021222;28;19921;-76
2023/08/20 11:10:59;;;;;;;;;;;;;;;;;;5022179;28;19921;-76
2023/08/20 11:13:45;;;;;;;;;;;;;;;;;;5019647;28;19934;-76
2023/08/20 11:16:32;;;;;;;;;;;;;;;;;;5022669;28;19917;-76
2023/08/20 11:19:18;;;;;;;;;;;;;;;;;;5019150;28;19928;-76
2023/08/20 11:22:05;;;;;;;;;;;;;;;;;;5020040;28;19924;-76
2023/08/20 11:24:51;;;;;;;;;;;;;;;;;;5024152;28;20373;-75
2023/08/20 11:27:37;;;;;;;;;;;;;;;;;;5007894;28;20231;-75
2023/08/20 11:30:24;;;;;;;;;;;;;;;;;;5010935;28;19940;-76
2023/08/20 11:33:10;;;;;;;;;;;;;;;;;;5025820;28;19917;-76
2023/08/20 11:35:57;;;;;;;;;;;;;;;;;;5016168;28;19924;-75
2023/08/20 11:38:44;;;;;;;;;;;;;;;;;;5013144;28;19921;-76
2023/08/20 11:41:30;;;;;;;;;;;;;;;;;;5023347;28;20335;-77
2023/08/20 11:44:17;;;;;;;;;;;;;;;;;;5025082;28;19921;-75
2023/08/20 11:47:03;;;;;;;;;;;;;;;;;;5024537;28;19979;-75
2023/08/20 11:49:49;;;;;;;;;;;;;;;;;;5027329;28;19921;-75
2023/08/20 11:52:39;;;;;;;;;;;;;;;;;;5017811;28;20277;-75
2023/08/20 11:55:26;;;;;;;;;;;;;;;;;;5023245;28;19917;-76
2023/08/20 11:58:12;;;;;;;;;;;;;;;;;;5023723;28;19924;-76
2023/08/20 12:00:59;;;;;;;;;;;;;;;;;;5025058;28;19921;-76
2023/08/20 12:03:45;;;;;;;;;;;;;;;;;;5020726;28;19964;-76
2023/08/20 12:06:32;;;;;;;;;;;;;;;;;;5026367;28;19933;-77
2023/08/20 12:09:19;;;;;;;;;;;;;;;;;;5022386;28;20388;-76
2023/08/20 12:12:06;;;;;;;;;;;;;;;;;;5015626;28;20381;-77
2023/08/20 12:14:52;;;;;;;;;;;;;;;;;;5023122;28;19928;-76
2023/08/20 12:17:39;;;;;;;;;;;;;;;;;;5021324;28;19917;-77
2023/08/20 12:20:25;;;;;;;;;;;;;;;;;;5017669;28;19921;-77
2023/08/20 12:23:12;;;;;;;;;;;;;;;;;;5022789;28;20367;-76
2023/08/20 12:25:58;;;;;;;;;;;;;;;;;;5023154;28;19940;-77
2023/08/20 12:28:45;;;;;;;;;;;;;;;;;;5021797;28;19921;-76
2023/08/20 12:31:31;;;;;;;;;;;;;;;;;;5026945;28;19921;-76
2023/08/20 12:34:18;;;;;;;;;;;;;;;;;;5020362;28;20216;-76
2023/08/20 12:37:04;;;;;;;;;;;;;;;;;;5022430;28;20335;-77
2023/08/20 12:39:51;;;;;;;;;;;;;;;;;;5008167;28;19921;-76
2023/08/20 12:42:38;;;;;;;;;;;;;;;;;;5010834;28;20012;-77
2023/08/20 12:45:24;;;;;;;;;;;;;;;;;;5020556;28;19951;-79
2023/08/20 12:48:11;;;;;;;;;;;;;;;;;;5020823;28;19931;-77
2023/08/20 12:50:57;;;;;;;;;;;;;;;;;;5024229;28;20392;-77
2023/08/20 12:53:44;;;;;;;;;;;;;;;;;;4998451;28;19928;-77
2023/08/20 12:56:30;;;;;;;;;;;;;;;;;;5023725;28;19927;-77
2023/08/20 12:59:17;;;;;;;;;;;;;;;;;;5014226;28;19944;-76
2023/08/20 13:02:03;;;;;;;;;;;;;;;;;;5022736;28;19917;-77
2023/08/20 13:04:50;;;;;;;;;;;;;;;;;;5023394;28;19921;-78
2023/08/20 13:07:36;;;;;;;;;;;;;;;;;;5003290;28;20210;-77
2023/08/20 13:10:23;;;;;;;;;;;;;;;;;;5023623;28;19928;-78
2023/08/20 13:13:09;;;;;;;;;;;;;;;;;;5020796;28;19925;-77
2023/08/20 13:15:56;;;;;;;;;;;;;;;;;;5021497;28;20020;-75
2023/08/20 13:18:42;;;;;;;;;;;;;;;;;;5020622;28;19922;-76
2023/08/20 13:21:29;;;;;;;;;;;;;;;;;;5020854;28;19917;-76
2023/08/20 13:24:15;;;;;;;;;;;;;;;;;;5017588;28;20292;-74
2023/08/20 13:27:02;;;;;;;;;;;;;;;;;;5010741;28;19940;-74
2023/08/20 13:29:48;;;;;;;;;;;;;;;;;;5022319;28;19922;-75
2023/08/20 13:32:35;;;;;;;;;;;;;;;;;;5024458;28;19921;-74
2023/08/20 13:35:22;;;;;;;;;;;;;;;;;;5023875;28;20455;-74
2023/08/20 13:38:09;;;;;;;;;;;;;;;;;;5015215;28;19921;-75
2023/08/20 13:40:57;;;;;;;;;;;;;;;;;;5020883;28;19925;-74
2023/08/20 13:43:43;;;;;;;;;;;;;;;;;;5020133;28;20601;-75
2023/08/20 13:46:30;;;;;;;;;;;;;;;;;;5018888;28;19933;-75
2023/08/20 13:49:16;;;;;;;;;;;;;;;;;;5016124;28;20535;-75
2023/08/20 13:52:03;;;;;;;;;;;;;;;;;;5019258;28;19926;-75
2023/08/20 13:54:49;;;;;;;;;;;;;;;;;;5022194;28;19925;-75
2023/08/20 13:57:36;;;;;;;;;;;;;;;;;;5022401;28;19917;-75
2023/08/20 14:00:22;;;;;;;;;;;;;;;;;;5015002;28;20297;-75
2023/08/20 14:03:09;;;;;;;;;;;;;;;;;;5013283;28;19926;-75
2023/08/20 14:05:55;;;;;;;;;;;;;;;;;;5013473;28;19933;-75
2023/08/20 14:08:41;;;;;;;;;;;;;;;;;;5021401;28;19928;-76
2023/08/20 14:11:28;;;;;;;;;;;;;;;;;;5019193;28;19951;-76
2023/08/20 14:14:14;;;;;;;;;;;;;;;;;;5009940;28;20397;-76
2023/08/20 14:17:02;;;;;;;;;;;;;;;;;;5022855;28;19921;-75
2023/08/20 14:19:49;;;;;;;;;;;;;;;;;;5017739;28;19921;-74
2023/08/20 14:22:36;;;;;;;;;;;;;;;;;;5020528;28;20369;-76
2023/08/20 14:25:22;;;;;;;;;;;;;;;;;;5013689;28;20599;-76
2023/08/20 14:28:08;;;;;;;;;;;;;;;;;;5024555;28;19927;-76
2023/08/20 14:30:55;;;;;;;;;;;;;;;;;;5022775;28;19921;-76
2023/08/20 14:33:42;;;;;;;;;;;;;;;;;;5021973;28;19917;-76
2023/08/20 14:36:28;;;;;;;;;;;;;;;;;;5022574;28;19921;-76
2023/08/20 14:39:15;;;;;;;;;;;;;;;;;;5021800;28;19936;-76
2023/08/20 14:42:02;;;;;;;;;;;;;;;;;;5019959;28;19940;-75
2023/08/20 14:44:48;;;;;;;;;;;;;;;;;;5019174;28;20407;-76
2023/08/20 14:47:35;;;;;;;;;;;;;;;;;;5020165;28;20282;-76
2023/08/20 14:50:21;;;;;;;;;;;;;;;;;;5023133;28;19925;-77
2023/08/20 14:53:08;;;;;;;;;;;;;;;;;;5020769;28;19921;-76
2023/08/20 14:55:54;;;;;;;;;;;;;;;;;;5019227;28;19925;-76
2023/08/20 14:58:41;;;;;;;;;;;;;;;;;;5018046;28;19946;-75
2023/08/20 15:01:27;;;;;;;;;;;;;;;;;;5019305;28;19985;-76
2023/08/20 15:04:14;;;;;;;;;;;;;;;;;;5019377;28;19917;-75
2023/08/20 15:07:00;;;;;;;;;;;;;;;;;;5015184;28;19932;-75
2023/08/20 15:09:47;;;;;;;;;;;;;;;;;;5018289;28;20000;-75
2023/08/20 15:12:33;;;;;;;;;;;;;;;;;;5020833;28;20321;-75
2023/08/20 15:15:20;;;;;;;;;;;;;;;;;;5021817;28;20262;-75
2023/08/20 15:18:07;;;;;;;;;;;;;;;;;;5018397;28;19925;-75
2023/08/20 15:20:54;;;;;;;;;;;;;;;;;;5012507;28;20344;-75
2023/08/20 15:23:41;;;;;;;;;;;;;;;;;;5014528;28;19914;-75
2023/08/20 15:26:28;;;;;;;;;;;;;;;;;;5008024;28;19949;-75
2023/08/20 15:29:14;;;;;;;;;;;;;;;;;;5006637;28;20410;-75
2023/08/20 15:32:01;;;;;;;;;;;;;;;;;;5018394;28;19921;-76
2023/08/20 15:34:48;;;;;;;;;;;;;;;;;;5015451;28;19914;-74
2023/08/20 15:37:35;;;;;;;;;;;;;;;;;;5017154;28;20169;-74
2023/08/20 15:40:21;;;;;;;;;;;;;;;;;;5016259;28;19927;-74
2023/08/20 15:43:07;;;;;;;;;;;;;;;;;;5005198;28;20624;-75
2023/08/20 15:45:54;;;;;;;;;;;;;;;;;;5012234;28;19928;-74
2023/08/20 15:48:40;;;;;;;;;;;;;;;;;;5016854;28;19928;-75
2023/08/20 15:51:27;;;;;;;;;;;;;;;;;;5019074;28;19927;-75
2023/08/20 15:54:13;;;;;;;;;;;;;;;;;;5015465;28;19917;-74
2023/08/20 15:57:00;;;;;;;;;;;;;;;;;;5011621;28;20305;-75
2023/08/20 15:59:47;;;;;;;;;;;;;;;;;;5020902;28;20483;-76
2023/08/20 16:02:34;;;;;;;;;;;;;;;;;;5021931;28;19921;-76
2023/08/20 16:05:20;;;;;;;;;;;;;;;;;;5020716;28;19921;-76
2023/08/20 16:08:07;;;;;;;;;;;;;;;;;;5015779;28;19925;-76
2023/08/20 16:10:53;;;;;;;;;;;;;;;;;;5029230;28;19924;-76
2023/08/20 16:13:40;;;;;;;;;;;;;;;;;;5020046;28;19917;-76
2023/08/20 16:16:26;;;;;;;;;;;;;;;;;;5030005;28;19921;-75
2023/08/20 16:19:12;;;;;;;;;;;;;;;;;;5023973;28;19923;-75
2023/08/20 16:21:59;;;;;;;;;;;;;;;;;;5022501;28;19921;-75
2023/08/20 16:24:45;;;;;;;;;;;;;;;;;;5023507;28;20308;-75
2023/08/20 16:27:32;;;;;;;;;;;;;;;;;;5012571;28;20046;-75
2023/08/20 16:30:19;;;;;;;;;;;;;;;;;;5025059;28;19921;-74
2023/08/20 16:33:05;;;;;;;;;;;;;;;;;;5017711;28;19944;-75
2023/08/20 16:35:52;;;;;;;;;;;;;;;;;;5022408;28;20622;-75
2023/08/20 16:38:38;;;;;;;;;;;;;;;;;;5009122;28;20435;-75
2023/08/20 16:41:25;;;;;;;;;;;;;;;;;;5019460;28;19921;-75
2023/08/20 16:44:11;;;;;;;;;;;;;;;;;;5018103;28;19913;-75
2023/08/20 16:46:58;;;;;;;;;;;;;;;;;;5024493;28;20367;-75
2023/08/20 16:49:44;;;;;;;;;;;;;;;;;;5016360;28;19932;-75
2023/08/20 16:52:31;;;;;;;;;;;;;;;;;;5026303;28;20324;-75
2023/08/20 16:55:17;;;;;;;;;;;;;;;;;;5024313;28;19921;-75
2023/08/20 16:58:04;;;;;;;;;;;;;;;;;;5019112;28;19931;-75
2023/08/20 17:00:51;;;;;;;;;;;;;;;;;;5018609;28;19924;-77
2023/08/20 17:03:37;;;;;;;;;;;;;;;;;;5020391;28;19952;-75
2023/08/20 17:06:24;;;;;;;;;;;;;;;;;;5021535;28;19931;-75
2023/08/20 17:09:10;;;;;;;;;;;;;;;;;;5025172;28;19917;-75
2023/08/20 17:11:57;;;;;;;;;;;;;;;;;;5010591;28;19925;-75
2023/08/20 17:14:43;;;;;;;;;;;;;;;;;;5020188;28;19924;-75
2023/08/20 17:17:30;;;;;;;;;;;;;;;;;;5022512;28;19917;-75
2023/08/20 17:20:16;;;;;;;;;;;;;;;;;;5023644;28;19921;-75
2023/08/20 17:23:03;;;;;;;;;;;;;;;;;;5023252;28;19969;-74
2023/08/20 17:25:49;;;;;;;;;;;;;;;;;;5024158;28;20236;-75
2023/08/20 17:28:36;;;;;;;;;;;;;;;;;;5016282;28;19932;-75
2023/08/20 17:31:22;;;;;;;;;;;;;;;;;;5022894;28;19956;-75
2023/08/20 17:34:10;;;;;;;;;;;;;;;;;;5023696;28;20388;-75
2023/08/20 17:36:57;;;;;;;;;;;;;;;;;;5008804;28;19918;-75
2023/08/20 17:39:43;;;;;;;;;;;;;;;;;;5009132;28;20628;-75
2023/08/20 17:42:29;;;;;;;;;;;;;;;;;;5022597;28;19921;-75
2023/08/20 17:45:16;;;;;;;;;;;;;;;;;;5019808;28;20245;-77
2023/08/20 17:48:02;;;;;;;;;;;;;;;;;;5020652;28;19929;-75
2023/08/20 17:50:49;;;;;;;;;;;;;;;;;;5019472;28;19928;-78
2023/08/20 17:53:36;;;;;;;;;;;;;;;;;;5016235;28;19928;-79
2023/08/20 17:56:22;;;;;;;;;;;;;;;;;;5016448;28;19925;-79
2023/08/20 17:59:09;;;;;;;;;;;;;;;;;;5022024;28;19920;-80
2023/08/20 18:01:55;;;;;;;;;;;;;;;;;;5018326;28;19925;-79
2023/08/20 18:04:42;;;;;;;;;;;;;;;;;;5015761;28;19918;-78
2023/08/20 18:07:28;;;;;;;;;;;;;;;;;;5021501;28;19925;-78
2023/08/20 18:10:15;;;;;;;;;;;;;;;;;;5018532;28;19921;-79
2023/08/20 18:13:02;;;;;;;;;;;;;;;;;;5016947;28;19925;-79
2023/08/20 18:15:49;;;;;;;;;;;;;;;;;;5019030;28;19921;-77
2023/08/20 18:18:35;;;;;;;;;;;;;;;;;;5021050;28;20997;-77
2023/08/20 18:21:22;;;;;;;;;;;;;;;;;;5007037;28;20381;-76
2023/08/20 18:24:08;;;;;;;;;;;;;;;;;;5019556;28;19917;-74
2023/08/20 18:26:55;;;;;;;;;;;;;;;;;;5018500;28;19936;-75
2023/08/20 18:29:41;;;;;;;;;;;;;;;;;;5022896;28;19952;-74
2023/08/20 18:32:28;;;;;;;;;;;;;;;;;;5001503;28;19932;-76
2023/08/20 18:35:14;;;;;;;;;;;;;;;;;;5017984;28;19923;-75
2023/08/20 18:38:01;;;;;;;;;;;;;;;;;;5016809;28;19917;-75
2023/08/20 18:40:47;;;;;;;;;;;;;;;;;;5004630;28;19917;-77
2023/08/20 18:43:34;;;;;;;;;;;;;;;;;;5008545;28;20373;-76
2023/08/20 18:46:20;;;;;;;;;;;;;;;;;;5016410;28;19926;-79
2023/08/20 18:49:07;;;;;;;;;;;;;;;;;;5017871;28;19936;-77
2023/08/20 18:51:53;;;;;;;;;;;;;;;;;;5004794;28;19925;-77
2023/08/20 18:54:42;;;;;;;;;;;;;;;;;;5014074;28;19933;-78
2023/08/20 18:57:28;;;;;;;;;;;;;;;;;;5017644;28;20377;-77
2023/08/20 19:00:15;;;;;;;;;;;;;;;;;;5010920;28;19922;-76